sensor_id;sensor_type;location;lat;lon;timestamp;P1;durP1;ratioP1;P2;durP2;ratioP2
22687;SDS011;11511;51.514;7.080;2022-11-14T00:01:47;16.65;;;12.00;;
22687;SDS011;11511;51.514;7.080;2022-11-14T00:04:31;17.95;;;11.90;;
22687;SDS011;11511;51.514;7.080;2022-11-14T00:07:15;17.67;;;12.50;;
22687;SDS011;11511;51.514;7.080;2022-11-14T00:10:00;16.77;;;13.38;;
22687;SDS011;11511;51.514;7.080;2022-11-14T00:12:44;17.88;;;12.48;;
22687;SDS011;11511;51.514;7.080;2022-11-14T00:15:30;19.83;;;13.18;;
22687;SDS011;11511;51.514;7.080;2022-11-14T00:20:59;21.80;;;13.65;;
22687;SDS011;11511;51.514;7.080;2022-11-14T00:23:43;18.37;;;13.30;;
22687;SDS011;11511;51.514;7.080;2022-11-14T00:26:52;21.35;;;14.80;;
22687;SDS011;11511;51.514;7.080;2022-11-14T00:29:37;21.50;;;14.35;;
22687;SDS011;11511;51.514;7.080;2022-11-14T00:32:22;19.55;;;13.82;;
22687;SDS011;11511;51.514;7.080;2022-11-14T00:35:06;22.20;;;14.97;;
22687;SDS011;11511;51.514;7.080;2022-11-14T00:37:52;21.23;;;15.80;;
22687;SDS011;11511;51.514;7.080;2022-11-14T00:40:36;21.95;;;15.00;;
22687;SDS011;11511;51.514;7.080;2022-11-14T00:43:21;22.80;;;15.52;;
22687;SDS011;11511;51.514;7.080;2022-11-14T00:46:06;22.38;;;15.65;;
22687;SDS011;11511;51.514;7.080;2022-11-14T00:48:50;24.50;;;16.07;;
22687;SDS011;11511;51.514;7.080;2022-11-14T00:51:34;25.25;;;15.13;;
22687;SDS011;11511;51.514;7.080;2022-11-14T00:54:19;23.40;;;15.13;;
22687;SDS011;11511;51.514;7.080;2022-11-14T00:57:03;24.77;;;16.17;;
22687;SDS011;11511;51.514;7.080;2022-11-14T00:59:48;24.48;;;16.50;;
22687;SDS011;11511;51.514;7.080;2022-11-14T01:02:32;24.47;;;16.70;;
22687;SDS011;11511;51.514;7.080;2022-11-14T01:05:17;26.80;;;16.48;;
22687;SDS011;11511;51.514;7.080;2022-11-14T01:08:01;25.02;;;16.27;;
22687;SDS011;11511;51.514;7.080;2022-11-14T01:10:47;25.73;;;16.85;;
22687;SDS011;11511;51.514;7.080;2022-11-14T01:13:34;24.42;;;16.75;;
22687;SDS011;11511;51.514;7.080;2022-11-14T01:16:18;27.27;;;17.53;;
22687;SDS011;11511;51.514;7.080;2022-11-14T01:19:03;23.00;;;16.13;;
22687;SDS011;11511;51.514;7.080;2022-11-14T01:21:48;22.58;;;15.68;;
22687;SDS011;11511;51.514;7.080;2022-11-14T01:24:32;25.10;;;16.85;;
22687;SDS011;11511;51.514;7.080;2022-11-14T01:27:17;25.17;;;16.92;;
22687;SDS011;11511;51.514;7.080;2022-11-14T01:30:02;23.53;;;16.33;;
22687;SDS011;11511;51.514;7.080;2022-11-14T01:35:31;21.38;;;15.10;;
22687;SDS011;11511;51.514;7.080;2022-11-14T01:38:16;24.23;;;15.45;;
22687;SDS011;11511;51.514;7.080;2022-11-14T01:41:01;22.77;;;15.90;;
22687;SDS011;11511;51.514;7.080;2022-11-14T01:43:46;23.33;;;15.55;;
22687;SDS011;11511;51.514;7.080;2022-11-14T01:46:32;23.00;;;15.82;;
22687;SDS011;11511;51.514;7.080;2022-11-14T01:49:21;23.40;;;15.52;;
22687;SDS011;11511;51.514;7.080;2022-11-14T01:52:11;23.52;;;15.35;;
22687;SDS011;11511;51.514;7.080;2022-11-14T01:55:11;21.52;;;15.07;;
22687;SDS011;11511;51.514;7.080;2022-11-14T01:57:55;25.50;;;16.33;;
22687;SDS011;11511;51.514;7.080;2022-11-14T02:03:26;23.95;;;16.63;;
22687;SDS011;11511;51.514;7.080;2022-11-14T02:06:12;26.17;;;16.20;;
22687;SDS011;11511;51.514;7.080;2022-11-14T02:09:01;28.30;;;17.45;;
22687;SDS011;11511;51.514;7.080;2022-11-14T02:11:48;26.20;;;17.30;;
22687;SDS011;11511;51.514;7.080;2022-11-14T02:14:34;25.17;;;16.95;;
22687;SDS011;11511;51.514;7.080;2022-11-14T02:17:21;26.60;;;17.17;;
22687;SDS011;11511;51.514;7.080;2022-11-14T02:22:55;26.67;;;18.15;;
22687;SDS011;11511;51.514;7.080;2022-11-14T02:25:39;27.58;;;17.80;;
22687;SDS011;11511;51.514;7.080;2022-11-14T02:28:25;26.90;;;17.75;;
22687;SDS011;11511;51.514;7.080;2022-11-14T02:31:09;28.20;;;18.02;;
22687;SDS011;11511;51.514;7.080;2022-11-14T02:33:54;29.30;;;18.27;;
22687;SDS011;11511;51.514;7.080;2022-11-14T02:36:38;27.50;;;18.58;;
22687;SDS011;11511;51.514;7.080;2022-11-14T02:39:22;25.55;;;17.67;;
22687;SDS011;11511;51.514;7.080;2022-11-14T02:42:07;29.63;;;18.98;;
22687;SDS011;11511;51.514;7.080;2022-11-14T02:44:52;27.73;;;18.42;;
22687;SDS011;11511;51.514;7.080;2022-11-14T02:47:36;25.65;;;18.48;;
22687;SDS011;11511;51.514;7.080;2022-11-14T02:50:20;29.23;;;19.15;;
22687;SDS011;11511;51.514;7.080;2022-11-14T02:53:04;29.80;;;19.90;;
22687;SDS011;11511;51.514;7.080;2022-11-14T02:55:49;33.45;;;21.50;;
22687;SDS011;11511;51.514;7.080;2022-11-14T02:58:35;31.90;;;20.25;;
22687;SDS011;11511;51.514;7.080;2022-11-14T03:01:19;32.40;;;20.90;;
22687;SDS011;11511;51.514;7.080;2022-11-14T03:04:04;33.80;;;21.23;;
22687;SDS011;11511;51.514;7.080;2022-11-14T03:06:48;32.20;;;20.65;;
22687;SDS011;11511;51.514;7.080;2022-11-14T03:09:32;31.40;;;21.33;;
22687;SDS011;11511;51.514;7.080;2022-11-14T03:12:17;32.25;;;21.75;;
22687;SDS011;11511;51.514;7.080;2022-11-14T03:15:03;36.65;;;21.42;;
22687;SDS011;11511;51.514;7.080;2022-11-14T03:17:52;33.63;;;20.92;;
22687;SDS011;11511;51.514;7.080;2022-11-14T03:20:36;35.72;;;21.90;;
22687;SDS011;11511;51.514;7.080;2022-11-14T03:23:21;31.33;;;20.80;;
22687;SDS011;11511;51.514;7.080;2022-11-14T03:26:06;34.13;;;20.48;;
22687;SDS011;11511;51.514;7.080;2022-11-14T03:28:53;33.50;;;21.13;;
22687;SDS011;11511;51.514;7.080;2022-11-14T03:31:38;36.42;;;21.25;;
22687;SDS011;11511;51.514;7.080;2022-11-14T03:34:22;36.00;;;21.35;;
22687;SDS011;11511;51.514;7.080;2022-11-14T03:37:07;32.77;;;21.57;;
22687;SDS011;11511;51.514;7.080;2022-11-14T03:39:51;34.45;;;21.05;;
22687;SDS011;11511;51.514;7.080;2022-11-14T03:42:36;38.88;;;23.08;;
22687;SDS011;11511;51.514;7.080;2022-11-14T03:45:21;38.22;;;22.40;;
22687;SDS011;11511;51.514;7.080;2022-11-14T03:48:05;36.83;;;22.87;;
22687;SDS011;11511;51.514;7.080;2022-11-14T03:50:50;38.85;;;23.52;;
22687;SDS011;11511;51.514;7.080;2022-11-14T03:53:35;37.90;;;23.70;;
22687;SDS011;11511;51.514;7.080;2022-11-14T03:56:20;39.55;;;23.85;;
22687;SDS011;11511;51.514;7.080;2022-11-14T03:59:05;39.63;;;23.33;;
22687;SDS011;11511;51.514;7.080;2022-11-14T04:01:50;41.33;;;23.70;;
22687;SDS011;11511;51.514;7.080;2022-11-14T04:04:34;42.58;;;24.20;;
22687;SDS011;11511;51.514;7.080;2022-11-14T04:07:19;38.50;;;24.40;;
22687;SDS011;11511;51.514;7.080;2022-11-14T04:10:03;42.95;;;25.20;;
22687;SDS011;11511;51.514;7.080;2022-11-14T04:12:49;40.88;;;24.35;;
22687;SDS011;11511;51.514;7.080;2022-11-14T04:15:35;40.47;;;24.95;;
22687;SDS011;11511;51.514;7.080;2022-11-14T04:18:20;42.67;;;25.33;;
22687;SDS011;11511;51.514;7.080;2022-11-14T04:21:04;44.88;;;26.13;;
22687;SDS011;11511;51.514;7.080;2022-11-14T04:23:49;43.65;;;25.80;;
22687;SDS011;11511;51.514;7.080;2022-11-14T04:26:33;41.78;;;24.60;;
22687;SDS011;11511;51.514;7.080;2022-11-14T04:29:17;46.95;;;25.30;;
22687;SDS011;11511;51.514;7.080;2022-11-14T04:32:01;39.63;;;23.10;;
22687;SDS011;11511;51.514;7.080;2022-11-14T04:34:46;44.00;;;25.00;;
22687;SDS011;11511;51.514;7.080;2022-11-14T04:37:30;44.67;;;26.73;;
22687;SDS011;11511;51.514;7.080;2022-11-14T04:40:15;38.65;;;24.10;;
22687;SDS011;11511;51.514;7.080;2022-11-14T04:42:59;41.42;;;24.70;;
22687;SDS011;11511;51.514;7.080;2022-11-14T04:45:44;44.67;;;24.48;;
22687;SDS011;11511;51.514;7.080;2022-11-14T04:48:28;40.80;;;25.30;;
22687;SDS011;11511;51.514;7.080;2022-11-14T04:51:14;43.00;;;24.13;;
22687;SDS011;11511;51.514;7.080;2022-11-14T04:53:58;41.22;;;24.60;;
22687;SDS011;11511;51.514;7.080;2022-11-14T04:56:43;35.88;;;22.77;;
22687;SDS011;11511;51.514;7.080;2022-11-14T04:59:27;36.70;;;23.38;;
22687;SDS011;11511;51.514;7.080;2022-11-14T05:02:12;42.35;;;25.33;;
22687;SDS011;11511;51.514;7.080;2022-11-14T05:04:56;39.70;;;24.23;;
22687;SDS011;11511;51.514;7.080;2022-11-14T05:07:41;40.42;;;24.23;;
22687;SDS011;11511;51.514;7.080;2022-11-14T05:10:25;40.75;;;25.45;;
22687;SDS011;11511;51.514;7.080;2022-11-14T05:13:10;42.15;;;25.33;;
22687;SDS011;11511;51.514;7.080;2022-11-14T05:15:58;41.35;;;24.95;;
22687;SDS011;11511;51.514;7.080;2022-11-14T05:18:43;43.40;;;24.92;;
22687;SDS011;11511;51.514;7.080;2022-11-14T05:21:28;43.97;;;25.50;;
22687;SDS011;11511;51.514;7.080;2022-11-14T05:24:12;41.23;;;24.70;;
22687;SDS011;11511;51.514;7.080;2022-11-14T05:26:57;42.05;;;25.13;;
22687;SDS011;11511;51.514;7.080;2022-11-14T05:32:27;41.60;;;24.10;;
22687;SDS011;11511;51.514;7.080;2022-11-14T05:35:12;44.83;;;25.35;;
22687;SDS011;11511;51.514;7.080;2022-11-14T05:37:59;38.60;;;22.52;;
22687;SDS011;11511;51.514;7.080;2022-11-14T05:40:44;38.13;;;23.80;;
22687;SDS011;11511;51.514;7.080;2022-11-14T05:43:28;41.03;;;24.42;;
22687;SDS011;11511;51.514;7.080;2022-11-14T05:46:14;40.97;;;23.73;;
22687;SDS011;11511;51.514;7.080;2022-11-14T05:48:59;40.83;;;24.17;;
22687;SDS011;11511;51.514;7.080;2022-11-14T05:51:43;35.65;;;22.38;;
22687;SDS011;11511;51.514;7.080;2022-11-14T05:54:28;37.25;;;22.42;;
22687;SDS011;11511;51.514;7.080;2022-11-14T05:57:13;38.00;;;22.73;;
22687;SDS011;11511;51.514;7.080;2022-11-14T05:59:57;33.53;;;22.65;;
22687;SDS011;11511;51.514;7.080;2022-11-14T06:02:43;37.15;;;22.63;;
22687;SDS011;11511;51.514;7.080;2022-11-14T06:05:29;38.92;;;22.88;;
22687;SDS011;11511;51.514;7.080;2022-11-14T06:08:13;40.50;;;23.50;;
22687;SDS011;11511;51.514;7.080;2022-11-14T06:11:05;36.50;;;22.65;;
22687;SDS011;11511;51.514;7.080;2022-11-14T06:13:53;42.40;;;25.10;;
22687;SDS011;11511;51.514;7.080;2022-11-14T06:16:38;39.83;;;24.50;;
22687;SDS011;11511;51.514;7.080;2022-11-14T06:19:22;40.95;;;23.02;;
22687;SDS011;11511;51.514;7.080;2022-11-14T06:22:06;43.27;;;24.67;;
22687;SDS011;11511;51.514;7.080;2022-11-14T06:24:50;40.92;;;23.95;;
22687;SDS011;11511;51.514;7.080;2022-11-14T06:27:35;40.28;;;23.92;;
22687;SDS011;11511;51.514;7.080;2022-11-14T06:30:19;40.95;;;23.95;;
22687;SDS011;11511;51.514;7.080;2022-11-14T06:33:04;38.78;;;23.70;;
22687;SDS011;11511;51.514;7.080;2022-11-14T06:35:48;38.78;;;22.48;;
22687;SDS011;11511;51.514;7.080;2022-11-14T06:38:33;37.92;;;23.50;;
22687;SDS011;11511;51.514;7.080;2022-11-14T06:41:19;38.45;;;23.95;;
22687;SDS011;11511;51.514;7.080;2022-11-14T06:44:06;41.70;;;23.65;;
22687;SDS011;11511;51.514;7.080;2022-11-14T06:46:51;37.90;;;23.13;;
22687;SDS011;11511;51.514;7.080;2022-11-14T06:49:35;38.88;;;23.15;;
22687;SDS011;11511;51.514;7.080;2022-11-14T06:52:20;40.30;;;23.40;;
22687;SDS011;11511;51.514;7.080;2022-11-14T06:55:05;41.63;;;24.23;;
22687;SDS011;11511;51.514;7.080;2022-11-14T06:57:52;45.20;;;24.27;;
22687;SDS011;11511;51.514;7.080;2022-11-14T07:00:39;39.22;;;22.83;;
22687;SDS011;11511;51.514;7.080;2022-11-14T07:03:23;40.88;;;24.63;;
22687;SDS011;11511;51.514;7.080;2022-11-14T07:06:08;48.38;;;25.35;;
22687;SDS011;11511;51.514;7.080;2022-11-14T07:08:55;45.47;;;26.73;;
22687;SDS011;11511;51.514;7.080;2022-11-14T07:11:40;48.90;;;26.13;;
22687;SDS011;11511;51.514;7.080;2022-11-14T07:14:24;44.55;;;26.95;;
22687;SDS011;11511;51.514;7.080;2022-11-14T07:17:09;44.20;;;25.88;;
22687;SDS011;11511;51.514;7.080;2022-11-14T07:19:52;48.05;;;26.42;;
22687;SDS011;11511;51.514;7.080;2022-11-14T07:22:37;47.15;;;26.90;;
22687;SDS011;11511;51.514;7.080;2022-11-14T07:25:21;45.38;;;27.58;;
22687;SDS011;11511;51.514;7.080;2022-11-14T07:28:06;45.42;;;26.25;;
22687;SDS011;11511;51.514;7.080;2022-11-14T07:30:51;46.45;;;26.42;;
22687;SDS011;11511;51.514;7.080;2022-11-14T07:33:35;45.38;;;26.95;;
22687;SDS011;11511;51.514;7.080;2022-11-14T07:36:19;49.00;;;26.97;;
22687;SDS011;11511;51.514;7.080;2022-11-14T07:39:04;46.03;;;26.75;;
22687;SDS011;11511;51.514;7.080;2022-11-14T07:41:48;52.05;;;29.52;;
22687;SDS011;11511;51.514;7.080;2022-11-14T07:44:33;51.47;;;28.30;;
22687;SDS011;11511;51.514;7.080;2022-11-14T07:47:17;55.63;;;29.53;;
22687;SDS011;11511;51.514;7.080;2022-11-14T07:50:02;55.05;;;29.65;;
22687;SDS011;11511;51.514;7.080;2022-11-14T07:52:51;57.85;;;29.92;;
22687;SDS011;11511;51.514;7.080;2022-11-14T07:55:37;51.97;;;28.67;;
22687;SDS011;11511;51.514;7.080;2022-11-14T07:58:21;55.35;;;29.75;;
22687;SDS011;11511;51.514;7.080;2022-11-14T08:01:06;53.92;;;29.95;;
22687;SDS011;11511;51.514;7.080;2022-11-14T08:03:53;53.22;;;30.50;;
22687;SDS011;11511;51.514;7.080;2022-11-14T08:06:37;49.65;;;28.50;;
22687;SDS011;11511;51.514;7.080;2022-11-14T08:09:21;55.53;;;30.60;;
22687;SDS011;11511;51.514;7.080;2022-11-14T08:12:06;59.40;;;32.45;;
22687;SDS011;11511;51.514;7.080;2022-11-14T08:14:50;50.67;;;29.27;;
22687;SDS011;11511;51.514;7.080;2022-11-14T08:17:35;60.30;;;32.60;;
22687;SDS011;11511;51.514;7.080;2022-11-14T08:20:19;58.17;;;31.55;;
22687;SDS011;11511;51.514;7.080;2022-11-14T08:23:05;51.83;;;29.13;;
22687;SDS011;11511;51.514;7.080;2022-11-14T08:25:53;56.88;;;31.30;;
22687;SDS011;11511;51.514;7.080;2022-11-14T08:28:37;60.65;;;36.90;;
22687;SDS011;11511;51.514;7.080;2022-11-14T08:31:21;55.47;;;33.15;;
22687;SDS011;11511;51.514;7.080;2022-11-14T08:36:51;60.25;;;34.15;;
22687;SDS011;11511;51.514;7.080;2022-11-14T08:39:36;52.85;;;31.17;;
22687;SDS011;11511;51.514;7.080;2022-11-14T08:42:20;39.78;;;24.90;;
22687;SDS011;11511;51.514;7.080;2022-11-14T08:45:05;35.33;;;22.17;;
22687;SDS011;11511;51.514;7.080;2022-11-14T08:47:50;30.00;;;20.27;;
22687;SDS011;11511;51.514;7.080;2022-11-14T08:50:36;26.25;;;18.63;;
22687;SDS011;11511;51.514;7.080;2022-11-14T08:53:20;26.13;;;17.25;;
22687;SDS011;11511;51.514;7.080;2022-11-14T08:56:05;26.65;;;15.82;;
22687;SDS011;11511;51.514;7.080;2022-11-14T08:58:49;23.23;;;15.23;;
22687;SDS011;11511;51.514;7.080;2022-11-14T09:01:33;20.55;;;14.55;;
22687;SDS011;11511;51.514;7.080;2022-11-14T09:04:17;25.05;;;16.45;;
22687;SDS011;11511;51.514;7.080;2022-11-14T09:07:02;22.17;;;15.52;;
22687;SDS011;11511;51.514;7.080;2022-11-14T09:09:47;26.80;;;15.70;;
22687;SDS011;11511;51.514;7.080;2022-11-14T09:12:32;25.20;;;15.75;;
22687;SDS011;11511;51.514;7.080;2022-11-14T09:15:16;22.00;;;14.75;;
22687;SDS011;11511;51.514;7.080;2022-11-14T09:18:01;18.40;;;13.38;;
22687;SDS011;11511;51.514;7.080;2022-11-14T09:20:46;23.50;;;15.27;;
22687;SDS011;11511;51.514;7.080;2022-11-14T09:23:31;18.85;;;13.77;;
22687;SDS011;11511;51.514;7.080;2022-11-14T09:26:16;20.90;;;13.80;;
22687;SDS011;11511;51.514;7.080;2022-11-14T09:29:02;18.83;;;13.90;;
22687;SDS011;11511;51.514;7.080;2022-11-14T09:34:34;21.23;;;13.82;;
22687;SDS011;11511;51.514;7.080;2022-11-14T09:37:19;21.17;;;14.13;;
22687;SDS011;11511;51.514;7.080;2022-11-14T09:40:04;22.83;;;14.25;;
22687;SDS011;11511;51.514;7.080;2022-11-14T09:45:47;21.73;;;13.73;;
22687;SDS011;11511;51.514;7.080;2022-11-14T09:48:34;20.52;;;13.07;;
22687;SDS011;11511;51.514;7.080;2022-11-14T09:51:19;22.17;;;13.80;;
22687;SDS011;11511;51.514;7.080;2022-11-14T09:54:18;20.17;;;13.70;;
22687;SDS011;11511;51.514;7.080;2022-11-14T09:57:12;22.05;;;14.40;;
22687;SDS011;11511;51.514;7.080;2022-11-14T09:59:59;21.55;;;14.35;;
22687;SDS011;11511;51.514;7.080;2022-11-14T10:05:59;23.55;;;15.32;;
22687;SDS011;11511;51.514;7.080;2022-11-14T10:12:13;21.90;;;14.60;;
22687;SDS011;11511;51.514;7.080;2022-11-14T10:15:19;21.95;;;14.73;;
22687;SDS011;11511;51.514;7.080;2022-11-14T10:24:54;25.35;;;15.43;;
22687;SDS011;11511;51.514;7.080;2022-11-14T10:31:28;20.42;;;14.15;;
22687;SDS011;11511;51.514;7.080;2022-11-14T10:34:20;23.75;;;15.90;;
22687;SDS011;11511;51.514;7.080;2022-11-14T10:37:18;20.25;;;13.07;;
22687;SDS011;11511;51.514;7.080;2022-11-14T10:40:17;19.00;;;13.25;;
22687;SDS011;11511;51.514;7.080;2022-11-14T10:43:23;22.05;;;12.68;;
22687;SDS011;11511;51.514;7.080;2022-11-14T10:46:17;20.58;;;12.38;;
22687;SDS011;11511;51.514;7.080;2022-11-14T10:49:13;18.00;;;11.20;;
22687;SDS011;11511;51.514;7.080;2022-11-14T10:52:02;17.10;;;11.53;;
22687;SDS011;11511;51.514;7.080;2022-11-14T10:54:57;19.13;;;10.65;;
22687;SDS011;11511;51.514;7.080;2022-11-14T11:00:31;14.75;;;10.23;;
22687;SDS011;11511;51.514;7.080;2022-11-14T11:03:16;16.23;;;10.27;;
22687;SDS011;11511;51.514;7.080;2022-11-14T11:06:01;14.40;;;10.00;;
22687;SDS011;11511;51.514;7.080;2022-11-14T11:08:46;15.40;;;10.18;;
22687;SDS011;11511;51.514;7.080;2022-11-14T11:11:53;13.50;;;9.52;;
22687;SDS011;11511;51.514;7.080;2022-11-14T11:14:46;14.82;;;9.82;;
22687;SDS011;11511;51.514;7.080;2022-11-14T11:17:32;14.77;;;9.88;;
22687;SDS011;11511;51.514;7.080;2022-11-14T11:25:59;15.93;;;11.07;;
22687;SDS011;11511;51.514;7.080;2022-11-14T11:31:52;19.23;;;12.30;;
22687;SDS011;11511;51.514;7.080;2022-11-14T11:34:38;19.75;;;13.27;;
22687;SDS011;11511;51.514;7.080;2022-11-14T11:37:33;19.70;;;12.97;;
22687;SDS011;11511;51.514;7.080;2022-11-14T11:40:23;20.25;;;13.05;;
22687;SDS011;11511;51.514;7.080;2022-11-14T11:43:15;19.25;;;12.90;;
22687;SDS011;11511;51.514;7.080;2022-11-14T11:46:07;20.27;;;13.10;;
22687;SDS011;11511;51.514;7.080;2022-11-14T11:49:12;20.73;;;13.75;;
22687;SDS011;11511;51.514;7.080;2022-11-14T11:52:03;18.50;;;12.23;;
22687;SDS011;11511;51.514;7.080;2022-11-14T11:55:04;17.73;;;12.05;;
22687;SDS011;11511;51.514;7.080;2022-11-14T11:58:20;17.92;;;11.73;;
22687;SDS011;11511;51.514;7.080;2022-11-14T12:01:09;16.77;;;11.25;;
22687;SDS011;11511;51.514;7.080;2022-11-14T12:03:54;16.83;;;11.10;;
22687;SDS011;11511;51.514;7.080;2022-11-14T12:06:47;15.38;;;10.98;;
22687;SDS011;11511;51.514;7.080;2022-11-14T12:09:56;15.98;;;10.18;;
22687;SDS011;11511;51.514;7.080;2022-11-14T12:15:42;15.37;;;10.50;;
22687;SDS011;11511;51.514;7.080;2022-11-14T12:18:56;14.88;;;10.13;;
22687;SDS011;11511;51.514;7.080;2022-11-14T12:31:17;15.23;;;11.43;;
22687;SDS011;11511;51.514;7.080;2022-11-14T12:37:17;15.98;;;10.70;;
22687;SDS011;11511;51.514;7.080;2022-11-14T12:40:06;15.52;;;10.50;;
22687;SDS011;11511;51.514;7.080;2022-11-14T12:43:01;14.48;;;10.25;;
22687;SDS011;11511;51.514;7.080;2022-11-14T12:48:37;16.20;;;10.20;;
22687;SDS011;11511;51.514;7.080;2022-11-14T12:54:40;13.80;;;9.70;;
22687;SDS011;11511;51.514;7.080;2022-11-14T12:57:36;15.23;;;10.20;;
22687;SDS011;11511;51.514;7.080;2022-11-14T13:00:31;12.27;;;9.02;;
22687;SDS011;11511;51.514;7.080;2022-11-14T13:03:20;13.43;;;9.45;;
22687;SDS011;11511;51.514;7.080;2022-11-14T13:06:30;16.50;;;9.57;;
22687;SDS011;11511;51.514;7.080;2022-11-14T13:09:53;11.48;;;8.52;;
22687;SDS011;11511;51.514;7.080;2022-11-14T13:16:21;13.35;;;8.93;;
22687;SDS011;11511;51.514;7.080;2022-11-14T13:19:26;13.52;;;8.80;;
22687;SDS011;11511;51.514;7.080;2022-11-14T13:22:42;12.40;;;8.80;;
22687;SDS011;11511;51.514;7.080;2022-11-14T13:25:28;11.95;;;8.88;;
22687;SDS011;11511;51.514;7.080;2022-11-14T13:35:03;10.70;;;7.82;;
22687;SDS011;11511;51.514;7.080;2022-11-14T13:37:53;13.23;;;8.40;;
22687;SDS011;11511;51.514;7.080;2022-11-14T13:43:56;11.50;;;8.07;;
22687;SDS011;11511;51.514;7.080;2022-11-14T13:50:11;12.68;;;8.48;;
22687;SDS011;11511;51.514;7.080;2022-11-14T13:53:00;12.10;;;8.88;;
22687;SDS011;11511;51.514;7.080;2022-11-14T13:58:53;13.50;;;9.43;;
22687;SDS011;11511;51.514;7.080;2022-11-14T14:02:10;12.85;;;9.23;;
22687;SDS011;11511;51.514;7.080;2022-11-14T14:05:28;15.40;;;9.65;;
22687;SDS011;11511;51.514;7.080;2022-11-14T14:08:19;15.27;;;9.50;;
22687;SDS011;11511;51.514;7.080;2022-11-14T14:17:26;16.73;;;9.55;;
22687;SDS011;11511;51.514;7.080;2022-11-14T14:20:34;15.02;;;8.77;;
22687;SDS011;11511;51.514;7.080;2022-11-14T14:29:42;14.52;;;9.55;;
22687;SDS011;11511;51.514;7.080;2022-11-14T14:32:35;16.60;;;10.90;;
22687;SDS011;11511;51.514;7.080;2022-11-14T14:35:23;15.20;;;10.65;;
22687;SDS011;11511;51.514;7.080;2022-11-14T14:38:20;15.98;;;10.23;;
22687;SDS011;11511;51.514;7.080;2022-11-14T14:41:09;17.13;;;10.32;;
22687;SDS011;11511;51.514;7.080;2022-11-14T14:43:57;14.85;;;10.43;;
22687;SDS011;11511;51.514;7.080;2022-11-14T14:46:43;18.17;;;10.43;;
22687;SDS011;11511;51.514;7.080;2022-11-14T14:49:30;17.55;;;11.18;;
22687;SDS011;11511;51.514;7.080;2022-11-14T14:52:29;14.75;;;10.15;;
22687;SDS011;11511;51.514;7.080;2022-11-14T14:55:21;17.35;;;10.90;;
22687;SDS011;11511;51.514;7.080;2022-11-14T15:01:11;14.75;;;10.30;;
22687;SDS011;11511;51.514;7.080;2022-11-14T15:04:01;16.50;;;10.57;;
22687;SDS011;11511;51.514;7.080;2022-11-14T15:06:50;15.75;;;9.80;;
22687;SDS011;11511;51.514;7.080;2022-11-14T15:09:35;16.10;;;10.63;;
22687;SDS011;11511;51.514;7.080;2022-11-14T15:12:21;15.57;;;10.80;;
22687;SDS011;11511;51.514;7.080;2022-11-14T15:15:11;16.50;;;10.88;;
22687;SDS011;11511;51.514;7.080;2022-11-14T15:17:56;17.05;;;9.48;;
22687;SDS011;11511;51.514;7.080;2022-11-14T15:21:00;17.77;;;11.27;;
22687;SDS011;11511;51.514;7.080;2022-11-14T15:24:11;15.40;;;10.80;;
22687;SDS011;11511;51.514;7.080;2022-11-14T15:27:14;16.60;;;11.45;;
22687;SDS011;11511;51.514;7.080;2022-11-14T15:30:04;16.52;;;10.50;;
22687;SDS011;11511;51.514;7.080;2022-11-14T15:32:54;18.33;;;11.50;;
22687;SDS011;11511;51.514;7.080;2022-11-14T15:35:39;14.35;;;10.65;;
22687;SDS011;11511;51.514;7.080;2022-11-14T15:38:24;15.13;;;11.13;;
22687;SDS011;11511;51.514;7.080;2022-11-14T15:41:21;15.95;;;10.65;;
22687;SDS011;11511;51.514;7.080;2022-11-14T15:44:27;18.38;;;11.68;;
22687;SDS011;11511;51.514;7.080;2022-11-14T15:47:34;19.02;;;11.60;;
22687;SDS011;11511;51.514;7.080;2022-11-14T15:50:21;18.73;;;11.65;;
22687;SDS011;11511;51.514;7.080;2022-11-14T15:53:28;18.50;;;11.30;;
22687;SDS011;11511;51.514;7.080;2022-11-14T15:56:13;19.17;;;13.25;;
22687;SDS011;11511;51.514;7.080;2022-11-14T15:58:58;16.33;;;11.33;;
22687;SDS011;11511;51.514;7.080;2022-11-14T16:01:43;21.38;;;15.82;;
22687;SDS011;11511;51.514;7.080;2022-11-14T16:04:31;16.60;;;11.40;;
22687;SDS011;11511;51.514;7.080;2022-11-14T16:07:17;16.80;;;11.48;;
22687;SDS011;11511;51.514;7.080;2022-11-14T16:10:02;18.02;;;11.43;;
22687;SDS011;11511;51.514;7.080;2022-11-14T16:12:47;16.17;;;11.85;;
22687;SDS011;11511;51.514;7.080;2022-11-14T16:15:32;23.23;;;12.25;;
22687;SDS011;11511;51.514;7.080;2022-11-14T16:18:17;16.30;;;11.30;;
22687;SDS011;11511;51.514;7.080;2022-11-14T16:21:01;16.15;;;11.20;;
22687;SDS011;11511;51.514;7.080;2022-11-14T16:23:47;16.92;;;11.75;;
22687;SDS011;11511;51.514;7.080;2022-11-14T16:26:33;16.67;;;11.32;;
22687;SDS011;11511;51.514;7.080;2022-11-14T16:29:17;19.27;;;11.33;;
22687;SDS011;11511;51.514;7.080;2022-11-14T16:32:02;16.77;;;10.95;;
22687;SDS011;11511;51.514;7.080;2022-11-14T16:34:47;19.83;;;12.52;;
22687;SDS011;11511;51.514;7.080;2022-11-14T16:37:31;18.05;;;11.85;;
22687;SDS011;11511;51.514;7.080;2022-11-14T16:40:16;15.73;;;11.25;;
22687;SDS011;11511;51.514;7.080;2022-11-14T16:43:12;17.70;;;11.00;;
22687;SDS011;11511;51.514;7.080;2022-11-14T16:45:57;17.77;;;11.88;;
22687;SDS011;11511;51.514;7.080;2022-11-14T16:48:47;17.55;;;11.43;;
22687;SDS011;11511;51.514;7.080;2022-11-14T16:51:31;17.48;;;11.95;;
22687;SDS011;11511;51.514;7.080;2022-11-14T16:54:16;15.70;;;10.60;;
22687;SDS011;11511;51.514;7.080;2022-11-14T16:57:02;14.90;;;10.73;;
22687;SDS011;11511;51.514;7.080;2022-11-14T16:59:46;15.90;;;11.30;;
22687;SDS011;11511;51.514;7.080;2022-11-14T17:02:31;16.65;;;12.02;;
22687;SDS011;11511;51.514;7.080;2022-11-14T17:05:15;16.60;;;11.43;;
22687;SDS011;11511;51.514;7.080;2022-11-14T17:07:59;16.07;;;11.37;;
22687;SDS011;11511;51.514;7.080;2022-11-14T17:10:44;17.33;;;11.75;;
22687;SDS011;11511;51.514;7.080;2022-11-14T17:13:30;15.02;;;10.93;;
22687;SDS011;11511;51.514;7.080;2022-11-14T17:16:15;17.63;;;11.10;;
22687;SDS011;11511;51.514;7.080;2022-11-14T17:19:00;16.42;;;11.65;;
22687;SDS011;11511;51.514;7.080;2022-11-14T17:21:44;16.92;;;12.02;;
22687;SDS011;11511;51.514;7.080;2022-11-14T17:24:29;19.85;;;12.13;;
22687;SDS011;11511;51.514;7.080;2022-11-14T17:27:13;18.23;;;12.77;;
22687;SDS011;11511;51.514;7.080;2022-11-14T17:29:57;16.98;;;12.60;;
22687;SDS011;11511;51.514;7.080;2022-11-14T17:32:42;18.92;;;12.65;;
22687;SDS011;11511;51.514;7.080;2022-11-14T17:35:27;17.58;;;12.27;;
22687;SDS011;11511;51.514;7.080;2022-11-14T17:38:11;16.17;;;11.10;;
22687;SDS011;11511;51.514;7.080;2022-11-14T17:40:56;18.33;;;11.15;;
22687;SDS011;11511;51.514;7.080;2022-11-14T17:43:41;17.20;;;11.35;;
22687;SDS011;11511;51.514;7.080;2022-11-14T17:46:26;14.77;;;11.57;;
22687;SDS011;11511;51.514;7.080;2022-11-14T17:49:11;17.90;;;12.30;;
22687;SDS011;11511;51.514;7.080;2022-11-14T17:51:55;17.33;;;11.45;;
22687;SDS011;11511;51.514;7.080;2022-11-14T17:54:40;17.92;;;12.48;;
22687;SDS011;11511;51.514;7.080;2022-11-14T17:57:24;16.30;;;11.27;;
22687;SDS011;11511;51.514;7.080;2022-11-14T18:00:08;17.25;;;11.93;;
22687;SDS011;11511;51.514;7.080;2022-11-14T18:02:54;16.42;;;12.32;;
22687;SDS011;11511;51.514;7.080;2022-11-14T18:05:38;16.00;;;11.65;;
22687;SDS011;11511;51.514;7.080;2022-11-14T18:08:23;18.70;;;12.98;;
22687;SDS011;11511;51.514;7.080;2022-11-14T18:11:09;18.33;;;12.32;;